Time;durP1;ratioP1;P1;durP2;ratioP2;P2;SDS_P1;SDS_P2;PMS_P1;PMS_P2;Temp;Humidity;BMP_temperature;BMP_pressure;BME280_temperature;BME280_humidity;BME280_pressure;Samples;Min_cycle;Max_cycle;Signal;HPM_P1;HPM_P2
2022/03/12 00:02:07;;;;;;;;;;;;;;;0.88;56.61;100964.78;5043197;28;20627;-86
2022/03/12 00:04:32;;;;;;;;;;;;;;;0.42;56.52;100967.88;5026752;28;19921;-85
2022/03/12 00:06:58;;;;;;;;;;;;;;;-0.17;60.49;100969.41;5028039;28;19983;-86
2022/03/12 00:09:25;;;;;;;;;;;;;;;-0.39;60.89;100970.03;5010384;28;20694;-86
2022/03/12 00:11:55;;;;;;;;;;;;;;;-0.44;60.62;100975.00;5028093;28;19924;-85
2022/03/12 00:14:21;;;;;;;;;;;;;;;-0.38;60.33;100971.84;5028090;28;19909;-85
2022/03/12 00:16:48;;;;;;;;;;;;;;;-0.54;60.38;100975.38;5027590;28;19960;-85
2022/03/12 00:19:14;;;;;;;;;;;;;;;-0.69;61.17;100972.88;5027057;28;19918;-85
2022/03/12 00:21:42;;;;;;;;;;;;;;;-1.04;62.61;100971.94;5028002;28;19963;-85
2022/03/12 00:24:12;;;;;;;;;;;;;;;-1.54;65.65;100976.22;5026682;28;19917;-86
2022/03/12 00:26:40;;;;;;;;;;;;;;;-1.63;66.68;100971.44;5027390;28;19917;-86
2022/03/12 00:29:14;;;;;;;;;;;;;;;-1.72;67.29;100972.63;5025469;28;19917;-86
2022/03/12 00:31:40;;;;;;;;;;;;;;;-1.71;67.86;100979.59;5027557;28;19921;-86
2022/03/12 00:34:05;;;;;;;;;;;;;;;-1.74;68.38;100979.44;5027553;28;19909;-85
2022/03/12 00:36:31;;;;;;;;;;;;;;;-2.10;73.47;100982.63;5027243;28;20288;-85
2022/03/12 00:38:56;;;;;;;;;;;;;;;-2.30;76.55;100983.19;5027464;28;19936;-85
2022/03/12 00:41:21;;;;;;;;;;;;;;;-2.43;77.00;100982.47;5027330;28;19923;-85
2022/03/12 00:43:47;;;;;;;;;;;;;;;-2.69;78.20;100986.13;5027057;28;19924;-85
2022/03/12 00:46:12;;;;;;;;;;;;;;;-2.73;79.38;100989.34;5027361;28;19921;-85
2022/03/12 00:48:41;;;;;;;;;;;;;;;-2.84;81.58;100987.78;5026825;28;19939;-87
2022/03/12 00:51:07;;;;;;;;;;;;;;;-3.03;81.75;100984.09;5026171;28;20028;-85
2022/03/12 00:53:32;;;;;;;;;;;;;;;-3.02;81.27;100990.19;5026477;28;20011;-85
2022/03/12 00:55:58;;;;;;;;;;;;;;;-2.98;81.82;100992.13;5027009;28;19916;-86
2022/03/12 00:58:23;;;;;;;;;;;;;;;-3.06;81.28;100987.41;5026769;28;19924;-85
2022/03/12 01:00:49;;;;;;;;;;;;;;;-3.06;80.80;100984.84;5026278;28;19920;-84
2022/03/12 01:03:14;;;;;;;;;;;;;;;-3.08;80.13;100993.28;5027426;28;19990;-86
2022/03/12 01:05:40;;;;;;;;;;;;;;;-3.17;80.92;100996.19;5027362;28;19917;-85
2022/03/12 01:08:07;;;;;;;;;;;;;;;-3.26;79.68;100987.88;5027252;28;20035;-85
2022/03/12 01:10:32;;;;;;;;;;;;;;;-3.28;79.99;100994.63;5026012;28;20019;-86
2022/03/12 01:12:58;;;;;;;;;;;;;;;-3.22;79.99;100996.72;5026919;28;19999;-87
2022/03/12 01:15:23;;;;;;;;;;;;;;;-3.09;79.13;100994.97;5027409;28;20052;-87
2022/03/12 01:17:48;;;;;;;;;;;;;;;-3.15;79.53;100993.69;5031412;28;19921;-86
2022/03/12 01:20:14;;;;;;;;;;;;;;;-3.29;79.64;100998.00;5029929;28;19921;-86
2022/03/12 01:22:39;;;;;;;;;;;;;;;-3.27;80.60;101007.63;5031274;28;20430;-86
2022/03/12 01:25:06;;;;;;;;;;;;;;;-3.09;79.60;100999.22;5030436;28;20722;-86
2022/03/12 01:27:32;;;;;;;;;;;;;;;-3.16;79.37;101004.84;5030829;28;19967;-87
2022/03/12 01:29:57;;;;;;;;;;;;;;;-3.28;78.65;100999.81;5030435;28;20024;-86
2022/03/12 01:32:23;;;;;;;;;;;;;;;-3.13;78.96;101002.44;5030065;28;20399;-85
2022/03/12 01:34:48;;;;;;;;;;;;;;;-3.16;79.13;100999.66;5030694;28;19913;-85
2022/03/12 01:37:19;;;;;;;;;;;;;;;-3.28;79.09;101002.38;5029811;28;20425;-86
2022/03/12 01:39:45;;;;;;;;;;;;;;;-3.31;79.35;101005.66;5030373;28;19974;-85
2022/03/12 01:42:10;;;;;;;;;;;;;;;-3.20;78.15;101006.31;5029449;28;19921;-86
2022/03/12 01:44:35;;;;;;;;;;;;;;;-3.22;78.59;101009.63;5031146;28;19921;-87
2022/03/12 01:47:05;;;;;;;;;;;;;;;-3.12;77.68;101007.69;5030883;28;20379;-87
2022/03/12 01:49:31;;;;;;;;;;;;;;;-3.20;78.16;101006.31;5030109;28;19927;-86
2022/03/12 01:51:56;;;;;;;;;;;;;;;-3.11;77.57;101014.63;5030265;28;19921;-85
2022/03/12 01:54:23;;;;;;;;;;;;;;;-3.15;78.14;101007.50;5029553;28;20009;-84
2022/03/12 01:56:49;;;;;;;;;;;;;;;-2.96;77.24;101013.78;5029385;28;19917;-85
2022/03/12 01:59:15;;;;;;;;;;;;;;;-2.93;76.65;101006.22;5012433;28;20648;-84
2022/03/12 02:01:41;;;;;;;;;;;;;;;-2.68;76.49;101008.56;5029206;28;20446;-85
2022/03/12 02:04:08;;;;;;;;;;;;;;;-2.48;75.03;101014.91;5030113;28;19917;-85
2022/03/12 02:06:33;;;;;;;;;;;;;;;-2.28;75.09;101015.19;5011663;28;19979;-86
2022/03/12 02:08:59;;;;;;;;;;;;;;;-2.29;74.17;101005.66;5029722;28;20413;-85
2022/03/12 02:11:28;;;;;;;;;;;;;;;-2.13;73.88;101013.50;5028749;28;20330;-85
2022/03/12 02:13:59;;;;;;;;;;;;;;;-2.09;73.45;101012.84;5030014;28;19917;-87
2022/03/12 02:16:25;;;;;;;;;;;;;;;-1.92;72.69;101008.63;5012142;28;19917;-86
2022/03/12 02:18:50;;;;;;;;;;;;;;;-1.63;70.87;101002.47;5030298;28;19909;-86
2022/03/12 02:21:28;;;;;;;;;;;;;;;-1.74;71.16;101011.38;5029619;28;19921;-86
2022/03/12 02:23:53;;;;;;;;;;;;;;;-1.76;71.14;101017.25;5029551;28;19943;-86
2022/03/12 02:26:19;;;;;;;;;;;;;;;-1.66;70.60;101004.03;5029285;28;20395;-87
2022/03/12 02:28:45;;;;;;;;;;;;;;;-1.58;70.91;101004.44;5029843;28;20407;-86
2022/03/12 02:31:13;;;;;;;;;;;;;;;-1.52;70.11;101007.38;5012226;28;19925;-86
2022/03/12 02:33:38;;;;;;;;;;;;;;;-1.56;70.15;101010.59;5011639;28;20296;-85
2022/03/12 02:36:05;;;;;;;;;;;;;;;-1.55;69.32;101008.09;5029537;28;19928;-87
2022/03/12 02:38:31;;;;;;;;;;;;;;;-1.54;69.31;101014.16;5029660;28;19984;-86
2022/03/12 02:40:56;;;;;;;;;;;;;;;-1.40;69.16;101014.91;5011747;28;20540;-86
2022/03/12 02:43:26;;;;;;;;;;;;;;;-1.59;68.88;101018.19;5028798;28;19917;-84
2022/03/12 02:45:57;;;;;;;;;;;;;;;-1.51;68.55;101016.94;5011682;28;19960;-85
2022/03/12 02:48:24;;;;;;;;;;;;;;;-1.71;68.79;101014.13;5029454;28;19921;-85
2022/03/12 02:50:51;;;;;;;;;;;;;;;-1.83;68.90;101016.91;5029430;28;19924;-85
2022/03/12 02:53:16;;;;;;;;;;;;;;;-1.76;69.18;101017.25;5028870;28;19915;-85
2022/03/12 02:55:43;;;;;;;;;;;;;;;-1.51;67.77;101014.34;5011660;28;20408;-85
2022/03/12 02:58:12;;;;;;;;;;;;;;;-1.57;67.31;101019.19;5029332;28;20762;-84
2022/03/12 03:00:38;;;;;;;;;;;;;;;-1.62;67.23;101022.41;5029426;28;19916;-85
2022/03/12 03:03:04;;;;;;;;;;;;;;;-1.55;67.27;101021.03;5029321;28;19970;-85
2022/03/12 03:05:44;;;;;;;;;;;;;;;-1.62;67.22;101017.22;5026484;28;19913;-85
2022/03/12 03:08:11;;;;;;;;;;;;;;;-1.65;65.98;101022.22;5009744;28;19924;-85
2022/03/12 03:10:38;;;;;;;;;;;;;;;-1.55;65.42;101026.19;5008352;28;19925;-84
2022/03/12 03:13:14;;;;;;;;;;;;;;;-1.50;65.07;101022.19;5013655;28;19951;-84
2022/03/12 03:15:40;;;;;;;;;;;;;;;-1.45;65.00;101018.13;5028875;28;19921;-85
2022/03/12 03:18:11;;;;;;;;;;;;;;;-1.36;64.34;101016.84;5028999;28;20012;-85
2022/03/12 03:20:37;;;;;;;;;;;;;;;-1.39;63.43;101017.59;5028339;28;19951;-85
2022/03/12 03:23:05;;;;;;;;;;;;;;;-1.33;62.83;101017.94;5024052;28;19939;-86
2022/03/12 03:25:31;;;;;;;;;;;;;;;-1.34;62.76;101017.84;5027525;28;19921;-86
2022/03/12 03:27:56;;;;;;;;;;;;;;;-1.45;61.77;101015.56;5028285;28;20007;-85
2022/03/12 03:30:21;;;;;;;;;;;;;;;-1.69;62.47;101019.38;5028745;28;20383;-86
2022/03/12 03:32:47;;;;;;;;;;;;;;;-1.60;62.19;101026.78;5028013;28;19928;-86
2022/03/12 03:35:12;;;;;;;;;;;;;;;-1.66;62.24;101020.44;5028213;28;19921;-86
2022/03/12 03:37:38;;;;;;;;;;;;;;;-1.67;62.72;101018.66;5032962;28;19982;-86
2022/03/12 03:40:04;;;;;;;;;;;;;;;-1.40;61.26;101012.34;5028915;28;19921;-85
2022/03/12 03:42:29;;;;;;;;;;;;;;;-1.36;60.59;101020.34;5027164;28;20434;-85
2022/03/12 03:44:59;;;;;;;;;;;;;;;-1.13;60.21;101026.75;5027999;28;19955;-84
2022/03/12 03:47:25;;;;;;;;;;;;;;;-1.17;60.44;101023.94;5023750;28;19979;-85
2022/03/12 03:49:50;;;;;;;;;;;;;;;-1.24;60.35;101027.00;5009978;28;19979;-83
2022/03/12 03:52:16;;;;;;;;;;;;;;;-1.17;59.90;101030.00;5027826;28;19944;-84
2022/03/12 03:54:42;;;;;;;;;;;;;;;-1.20;59.57;101023.78;5023013;28;20403;-88
2022/03/12 03:57:10;;;;;;;;;;;;;;;-1.08;58.67;101020.13;5027739;28;19924;-84
2022/03/12 03:59:35;;;;;;;;;;;;;;;-1.33;59.29;101040.31;5028062;28;20423;-83
2022/03/12 04:02:00;;;;;;;;;;;;;;;-1.14;58.56;101037.94;5027029;28;20007;-85
2022/03/12 04:04:28;;;;;;;;;;;;;;;-1.18;58.38;101042.84;5028134;28;19976;-85
2022/03/12 04:06:54;;;;;;;;;;;;;;;-1.52;58.48;101039.31;5028210;28;19928;-84
2022/03/12 04:09:19;;;;;;;;;;;;;;;-1.47;58.58;101048.25;5027527;28;19968;-85
2022/03/12 04:11:45;;;;;;;;;;;;;;;-1.66;59.04;101048.88;5027995;28;19917;-85
2022/03/12 04:14:10;;;;;;;;;;;;;;;-1.67;59.11;101046.22;5027157;28;19959;-85
2022/03/12 04:16:37;;;;;;;;;;;;;;;-2.05;60.11;101050.13;5028300;28;20040;-85
2022/03/12 04:19:06;;;;;;;;;;;;;;;-1.95;60.51;101049.84;5027794;28;19917;-85
2022/03/12 04:21:31;;;;;;;;;;;;;;;-1.94;60.13;101054.22;5027991;28;19913;-84
2022/03/12 04:23:57;;;;;;;;;;;;;;;-1.76;60.31;101053.47;5027999;28;19913;-84
2022/03/12 04:26:23;;;;;;;;;;;;;;;-1.67;59.35;101056.56;5027154;28;19920;-85
2022/03/12 04:28:49;;;;;;;;;;;;;;;-1.45;58.54;101061.28;5027697;28;19917;-84
2022/03/12 04:31:15;;;;;;;;;;;;;;;-1.35;58.56;101065.25;5042624;28;20015;-85
2022/03/12 04:33:40;;;;;;;;;;;;;;;-1.28;58.21;101064.78;5027393;28;20019;-85
2022/03/12 04:36:09;;;;;;;;;;;;;;;-1.21;58.88;101071.19;5027800;28;20376;-85
2022/03/12 04:38:34;;;;;;;;;;;;;;;-1.09;58.23;101069.25;5027648;28;19913;-85
2022/03/12 04:41:00;;;;;;;;;;;;;;;-1.12;58.62;101072.56;5027786;28;19966;-85
2022/03/12 04:43:26;;;;;;;;;;;;;;;-0.96;58.86;101068.19;5027270;28;20361;-85
2022/03/12 04:45:51;;;;;;;;;;;;;;;-1.00;59.00;101069.75;5027652;28;19936;-86
2022/03/12 04:48:18;;;;;;;;;;;;;;;-0.91;59.14;101079.72;5027337;28;20322;-87
2022/03/12 04:50:44;;;;;;;;;;;;;;;-0.83;58.92;101078.41;5009613;28;20441;-87
2022/03/12 04:53:10;;;;;;;;;;;;;;;-0.79;59.04;101077.78;5027424;28;19943;-87
2022/03/12 04:55:38;;;;;;;;;;;;;;;-0.74;58.35;101071.13;5009383;28;19971;-86
2022/03/12 04:58:04;;;;;;;;;;;;;;;-0.78;58.33;101083.84;5034421;28;19952;-85
2022/03/12 05:00:31;;;;;;;;;;;;;;;-0.71;58.28;101070.41;5026628;28;19929;-86
2022/03/12 05:03:04;;;;;;;;;;;;;;;-0.62;58.23;101069.97;5026981;28;20353;-87
2022/03/12 05:05:29;;;;;;;;;;;;;;;-0.71;58.05;101062.63;5026908;28;19963;-87
2022/03/12 05:07:56;;;;;;;;;;;;;;;-0.70;57.67;101059.22;5027379;28;19917;-87
2022/03/12 05:10:21;;;;;;;;;;;;;;;-0.66;57.68;101065.47;5008639;28;19921;-88
2022/03/12 05:12:50;;;;;;;;;;;;;;;-0.68;56.76;101070.56;5008827;28;19913;-86
2022/03/12 05:15:17;;;;;;;;;;;;;;;-0.83;56.92;101073.25;5008479;28;19928;-88
2022/03/12 05:17:47;;;;;;;;;;;;;;;-0.85;56.97;101076.53;5025655;28;20387;-86
2022/03/12 05:20:18;;;;;;;;;;;;;;;-0.71;56.65;101078.19;5018167;28;20015;-84
2022/03/12 05:22:43;;;;;;;;;;;;;;;-0.65;57.03;101080.19;5027046;28;19917;-85
2022/03/12 05:25:09;;;;;;;;;;;;;;;-0.64;56.74;101080.28;5026488;28;19917;-84
2022/03/12 05:27:34;;;;;;;;;;;;;;;-0.55;56.95;101083.34;5026368;28;19959;-85
2022/03/12 05:30:00;;;;;;;;;;;;;;;-0.43;56.05;101082.22;5027163;28;20690;-84
2022/03/12 05:32:25;;;;;;;;;;;;;;;-0.40;56.08;101084.97;5026854;28;19917;-86
2022/03/12 05:34:50;;;;;;;;;;;;;;;-0.33;56.89;101079.25;5026755;28;19920;-84
2022/03/12 05:37:17;;;;;;;;;;;;;;;-0.29;56.79;101080.34;5005299;28;20454;-82
2022/03/12 05:39:42;;;;;;;;;;;;;;;-0.23;56.49;101078.06;5006561;28;20008;-83
2022/03/12 05:42:08;;;;;;;;;;;;;;;-0.10;56.05;101082.16;5006690;28;20016;-82
2022/03/12 05:44:36;;;;;;;;;;;;;;;-0.04;55.29;101090.22;5007425;28;19956;-82
2022/03/12 05:47:02;;;;;;;;;;;;;;;0.04;54.01;101088.91;5006897;28;19918;-84
2022/03/12 05:49:27;;;;;;;;;;;;;;;0.19;53.85;101091.38;5020082;28;19920;-89
2022/03/12 05:51:53;;;;;;;;;;;;;;;0.23;53.63;101092.41;5027034;28;20375;-84
2022/03/12 05:54:18;;;;;;;;;;;;;;;0.36;54.10;101092.19;5022526;28;19917;-86
2022/03/12 05:56:44;;;;;;;;;;;;;;;0.47;54.90;101091.00;5007150;28;19924;-84
2022/03/12 05:59:09;;;;;;;;;;;;;;;0.58;54.80;101090.63;5025783;28;19917;-86
2022/03/12 06:01:35;;;;;;;;;;;;;;;0.52;54.60;101092.09;5027946;28;19917;-86
2022/03/12 06:04:00;;;;;;;;;;;;;;;0.58;54.32;101098.44;5027798;28;20024;-87
2022/03/12 06:06:29;;;;;;;;;;;;;;;0.69;53.95;101095.50;4998815;28;19925;-86
2022/03/12 06:08:58;;;;;;;;;;;;;;;0.74;52.63;101111.31;5012214;28;19967;-88
2022/03/12 06:11:25;;;;;;;;;;;;;;;0.89;51.21;101113.75;5012192;28;20009;-89
2022/03/12 06:14:00;;;;;;;;;;;;;;;0.95;51.11;101115.75;4995243;28;20012;-86
2022/03/12 06:16:26;;;;;;;;;;;;;;;1.05;49.70;101107.53;4993481;28;19917;-84
2022/03/12 06:18:54;;;;;;;;;;;;;;;1.25;48.59;101124.97;5021919;28;20012;-85
2022/03/12 06:21:20;;;;;;;;;;;;;;;1.23;45.79;101126.59;5030952;28;19928;-87
2022/03/12 06:23:46;;;;;;;;;;;;;;;1.23;43.52;101139.59;5027817;28;20008;-87
2022/03/12 06:26:14;;;;;;;;;;;;;;;1.51;43.46;101145.16;5009123;28;20011;-86
2022/03/12 06:28:41;;;;;;;;;;;;;;;1.87;41.34;101139.78;5028899;28;19917;-88
2022/03/12 06:31:07;;;;;;;;;;;;;;;2.02;39.72;101136.97;5009623;28;20387;-88
2022/03/12 06:33:33;;;;;;;;;;;;;;;2.13;39.08;101148.72;5030063;28;19913;-87
2022/03/12 06:35:59;;;;;;;;;;;;;;;2.05;39.04;101152.72;5024874;28;19978;-92
2022/03/12 06:38:26;;;;;;;;;;;;;;;2.32;37.96;101148.66;5001096;28;19990;-88
2022/03/12 06:40:54;;;;;;;;;;;;;;;2.32;36.74;101153.88;5025276;28;19920;-91
2022/03/12 06:43:19;;;;;;;;;;;;;;;2.69;36.97;101160.59;5012271;28;19921;-91
2022/03/12 06:45:48;;;;;;;;;;;;;;;2.32;36.13;101161.69;5013754;28;19923;-91
2022/03/12 06:48:16;;;;;;;;;;;;;;;1.89;36.52;101157.25;5015398;28;20038;-93
2022/03/12 06:50:41;;;;;;;;;;;;;;;2.20;37.16;101169.00;4995843;28;20398;-91
2022/03/12 06:53:07;;;;;;;;;;;;;;;2.26;36.58;101155.34;5011748;28;19914;-94
2022/03/12 06:55:33;;;;;;;;;;;;;;;2.70;36.54;101161.47;5003903;28;20116;-91
2022/03/12 06:57:59;;;;;;;;;;;;;;;2.83;36.57;101160.28;5000087;28;20007;-95
2022/03/12 07:00:27;;;;;;;;;;;;;;;3.14;37.04;101170.19;5013242;28;20050;-94
2022/03/12 07:02:52;;;;;;;;;;;;;;;3.19;35.23;101160.81;5007172;28;19917;-92
2022/03/12 07:05:18;;;;;;;;;;;;;;;3.17;37.82;101165.09;5009924;28;19936;-92
2022/03/12 07:07:43;;;;;;;;;;;;;;;3.26;40.31;101168.88;5012559;28;19917;-89
2022/03/12 07:10:10;;;;;;;;;;;;;;;3.35;41.11;101161.38;5029539;28;19917;-90
2022/03/12 07:12:39;;;;;;;;;;;;;;;3.20;42.00;101167.81;5012843;28;19930;-90
2022/03/12 07:15:05;;;;;;;;;;;;;;;3.32;41.44;101170.00;4992223;28;19910;-87
2022/03/12 07:17:30;;;;;;;;;;;;;;;3.07;42.23;101169.88;5022674;28;20458;-90
2022/03/12 07:19:56;;;;;;;;;;;;;;;2.31;43.47;101164.22;5017920;28;19947;-90
2022/03/12 07:22:21;;;;;;;;;;;;;;;2.12;44.47;101162.56;4994365;28;19913;-92
2022/03/12 07:24:47;;;;;;;;;;;;;;;2.44;42.84;101169.13;5025248;28;20011;-92
2022/03/12 07:27:14;;;;;;;;;;;;;;;2.89;42.99;101168.34;5030894;28;20313;-88
2022/03/12 07:29:39;;;;;;;;;;;;;;;3.07;43.40;101170.75;5008533;28;19921;-90
2022/03/12 07:32:05;;;;;;;;;;;;;;;2.71;43.69;101173.69;4991343;28;19917;-91
2022/03/12 07:34:31;;;;;;;;;;;;;;;3.04;44.14;101174.16;5009644;28;20295;-88
2022/03/12 07:36:56;;;;;;;;;;;;;;;2.66;45.25;101173.50;5009082;28;19923;-92
2022/03/12 07:39:22;;;;;;;;;;;;;;;2.42;47.18;101175.09;5009385;28;19921;-86
2022/03/12 07:41:48;;;;;;;;;;;;;;;2.80;45.46;101174.06;5008983;28;20380;-86
2022/03/12 07:44:13;;;;;;;;;;;;;;;3.21;45.29;101171.28;5008730;28;19976;-85
2022/03/12 07:46:39;;;;;;;;;;;;;;;2.71;46.41;101180.63;5009304;28;19917;-86
2022/03/12 07:49:04;;;;;;;;;;;;;;;2.81;47.38;101181.06;5022703;28;19917;-86
2022/03/12 07:51:31;;;;;;;;;;;;;;;2.37;46.97;101176.63;5028032;28;20446;-90
2022/03/12 07:53:58;;;;;;;;;;;;;;;1.99;47.44;101179.34;5028766;28;19951;-85
2022/03/12 07:56:24;;;;;;;;;;;;;;;1.85;47.84;101176.16;5013116;28;19921;-84
2022/03/12 07:58:49;;;;;;;;;;;;;;;1.83;48.51;101177.81;5009956;28;19918;-86
2022/03/12 08:01:15;;;;;;;;;;;;;;;2.32;47.06;101172.13;4995388;28;19936;-85
2022/03/12 08:03:40;;;;;;;;;;;;;;;2.40;48.04;101180.25;5025946;28;21072;-85
2022/03/12 08:06:06;;;;;;;;;;;;;;;2.49;51.82;101175.41;5025181;28;20469;-86
2022/03/12 08:08:31;;;;;;;;;;;;;;;2.53;51.31;101180.75;5023940;28;20007;-85
2022/03/12 08:13:44;;;;;;;;;;;;;;;1.47;50.19;101192.63;5021646;28;19921;-89
2022/03/12 08:16:13;;;;;;;;;;;;;;;1.89;52.17;101190.22;5024181;28;20004;-83
2022/03/12 08:18:39;;;;;;;;;;;;;;;1.89;49.75;101191.09;5028885;28;19923;-91
2022/03/12 08:21:05;;;;;;;;;;;;;;;2.18;49.35;101194.09;5012641;28;20008;-89
2022/03/12 08:23:31;;;;;;;;;;;;;;;2.12;50.07;101199.91;5030321;28;19999;-90
2022/03/12 08:25:57;;;;;;;;;;;;;;;2.30;49.25;101191.09;5013877;28;19967;-87
2022/03/12 08:28:22;;;;;;;;;;;;;;;2.69;47.84;101196.22;5023727;28;19913;-88
2022/03/12 08:30:48;;;;;;;;;;;;;;;2.07;49.14;101197.91;5021576;28;19920;-92
2022/03/12 08:33:13;;;;;;;;;;;;;;;2.11;49.46;101198.13;5019115;28;19913;-89
2022/03/12 08:35:39;;;;;;;;;;;;;;;2.11;48.93;101199.84;5021856;28;20433;-85
2022/03/12 08:38:04;;;;;;;;;;;;;;;2.70;49.28;101203.19;5023046;28;19928;-89
2022/03/12 08:40:30;;;;;;;;;;;;;;;2.62;49.36;101213.28;5030379;28;19974;-85
2022/03/12 08:42:56;;;;;;;;;;;;;;;2.28;48.15;101209.25;5040142;28;20667;-89
2022/03/12 08:45:23;;;;;;;;;;;;;;;2.27;49.57;101212.69;5027955;28;20012;-86
2022/03/12 08:47:49;;;;;;;;;;;;;;;2.21;49.77;101211.53;5032619;28;19917;-85
2022/03/12 08:50:14;;;;;;;;;;;;;;;1.96;45.96;101210.47;5026894;28;19913;-88
2022/03/12 08:52:41;;;;;;;;;;;;;;;1.74;48.71;101212.09;5025983;28;19974;-85
2022/03/12 08:55:07;;;;;;;;;;;;;;;2.00;48.67;101206.31;5005266;28;19987;-88
2022/03/12 08:57:32;;;;;;;;;;;;;;;1.56;48.93;101206.97;5010904;28;19917;-88
2022/03/12 08:59:58;;;;;;;;;;;;;;;1.98;47.87;101208.84;5029682;28;19917;-85
2022/03/12 09:02:23;;;;;;;;;;;;;;;1.65;43.69;101218.63;5024578;28;19917;-87
2022/03/12 09:04:49;;;;;;;;;;;;;;;2.09;42.45;101220.59;5024708;28;19921;-87
2022/03/12 09:07:14;;;;;;;;;;;;;;;1.99;43.01;101222.72;5020270;28;19978;-86
2022/03/12 09:09:40;;;;;;;;;;;;;;;2.45;42.43;101227.31;5020146;28;19913;-86
2022/03/12 09:12:06;;;;;;;;;;;;;;;2.78;42.62;101217.44;5027001;28;19913;-89
2022/03/12 09:14:34;;;;;;;;;;;;;;;2.85;43.11;101211.63;5017280;28;19917;-86
2022/03/12 09:17:00;;;;;;;;;;;;;;;3.22;41.82;101214.81;5009890;28;19917;-88
2022/03/12 09:19:26;;;;;;;;;;;;;;;3.89;40.95;101206.03;4996348;28;20430;-86
2022/03/12 09:21:51;;;;;;;;;;;;;;;2.88;39.15;101218.69;5028856;28;19975;-84
2022/03/12 09:24:17;;;;;;;;;;;;;;;2.78;40.45;101208.69;5030774;28;19916;-90
2022/03/12 09:26:42;;;;;;;;;;;;;;;2.56;40.79;101212.16;4996662;28;19971;-90
2022/03/12 09:29:08;;;;;;;;;;;;;;;2.53;41.41;101210.28;4999057;28;19920;-89
2022/03/12 09:31:34;;;;;;;;;;;;;;;2.57;42.07;101213.94;5010539;28;19917;-90
2022/03/12 09:34:02;;;;;;;;;;;;;;;2.61;40.90;101208.91;5010223;28;20303;-88
2022/03/12 09:36:28;;;;;;;;;;;;;;;3.04;42.21;101217.56;5011299;28;19914;-88
2022/03/12 09:38:53;;;;;;;;;;;;;;;3.25;38.85;101209.72;5014620;28;19975;-87
2022/03/12 09:41:18;;;;;;;;;;;;;;;3.21;41.13;101205.19;5014504;28;19920;-89
2022/03/12 09:43:44;;;;;;;;;;;;;;;3.51;40.96;101202.88;5014409;28;19920;-92
2022/03/12 09:46:09;;;;;;;;;;;;;;;3.42;40.55;101201.66;5014883;28;19952;-89
2022/03/12 09:48:35;;;;;;;;;;;;;;;3.35;41.10;101195.31;5014232;28;19970;-88
2022/03/12 09:51:01;;;;;;;;;;;;;;;3.59;39.67;101206.66;4999216;28;20669;-91
2022/03/12 09:53:26;;;;;;;;;;;;;;;3.27;39.91;101192.41;5027182;28;19909;-91
2022/03/12 09:55:52;;;;;;;;;;;;;;;3.62;36.71;101192.84;5022836;28;19924;-91
2022/03/12 09:58:17;;;;;;;;;;;;;;;3.44;37.02;101192.16;5019955;28;19948;-89
2022/03/12 10:00:43;;;;;;;;;;;;;;;3.19;35.86;101199.03;5030396;28;19919;-89
2022/03/12 10:03:08;;;;;;;;;;;;;;;3.29;39.22;101190.75;5032700;28;20397;-90
2022/03/12 10:05:34;;;;;;;;;;;;;;;2.83;36.30;101183.72;5033775;28;20375;-91
2022/03/12 10:08:00;;;;;;;;;;;;;;;2.42;38.76;101190.72;5034501;28;19913;-89
2022/03/12 10:10:25;;;;;;;;;;;;;;;2.61;38.27;101184.56;5037323;28;19919;-92
2022/03/12 10:12:50;;;;;;;;;;;;;;;2.55;36.61;101187.81;5014907;28;19916;-87
2022/03/12 10:15:16;;;;;;;;;;;;;;;2.73;37.70;101190.28;5051497;28;19908;-89
2022/03/12 10:17:46;;;;;;;;;;;;;;;3.02;39.22;101182.75;5034697;28;20002;-89
2022/03/12 10:20:11;;;;;;;;;;;;;;;3.29;39.73;101182.03;5036210;28;19912;-90
2022/03/12 10:22:38;;;;;;;;;;;;;;;3.29;38.84;101177.72;5053317;28;19970;-93
2022/03/12 10:25:06;;;;;;;;;;;;;;;3.01;37.77;101171.44;5023375;28;19925;-93
2022/03/12 10:27:33;;;;;;;;;;;;;;;3.26;38.79;101174.09;5005666;28;19969;-88
2022/03/12 10:29:58;;;;;;;;;;;;;;;2.80;36.88;101176.66;5026482;28;19918;-88
2022/03/12 10:32:28;;;;;;;;;;;;;;;2.98;38.16;101173.00;5032055;28;19917;-86
2022/03/12 10:34:56;;;;;;;;;;;;;;;3.80;39.32;101163.03;5031861;28;19913;-84
2022/03/12 10:37:25;;;;;;;;;;;;;;;4.08;37.87;101162.31;5031074;28;19916;-88
2022/03/12 10:40:10;;;;;;;;;;;;;;;4.20;36.63;101160.13;5028258;28;19982;-88
2022/03/12 10:42:36;;;;;;;;;;;;;;;3.93;32.00;101149.59;5031868;28;19927;-91
2022/03/12 10:45:05;;;;;;;;;;;;;;;4.33;32.14;101147.47;5033952;28;19978;-90
2022/03/12 10:47:33;;;;;;;;;;;;;;;4.31;32.74;101144.81;5014260;28;19957;-90
2022/03/12 10:50:00;;;;;;;;;;;;;;;3.76;32.66;101143.78;5015047;28;19960;-89
2022/03/12 10:52:31;;;;;;;;;;;;;;;3.63;34.88;101141.53;5014979;28;19917;-91
2022/03/12 10:54:57;;;;;;;;;;;;;;;4.11;33.19;101136.28;5016497;28;19913;-96
2022/03/12 10:57:22;;;;;;;;;;;;;;;4.38;32.37;101143.28;5014215;28;19920;-86
2022/03/12 10:59:52;;;;;;;;;;;;;;;3.99;33.76;101141.97;5032143;28;19921;-87
2022/03/12 11:02:17;;;;;;;;;;;;;;;3.94;34.15;101133.97;5015088;28;19913;-90
2022/03/12 11:04:52;;;;;;;;;;;;;;;3.80;32.85;101131.69;5030526;28;20383;-92
2022/03/12 11:07:38;;;;;;;;;;;;;;;;;;;;;
2022/03/12 11:10:33;;;;;;;;;;;;;;;2.90;36.08;101144.03;5027410;28;19943;-93
2022/03/12 11:12:59;;;;;;;;;;;;;;;2.83;37.85;101137.69;5031678;28;20003;-90
2022/03/12 11:15:24;;;;;;;;;;;;;;;3.00;38.77;101137.47;5013539;28;19927;-92
2022/03/12 11:17:51;;;;;;;;;;;;;;;3.52;38.68;101130.72;5014239;28;20351;-89
2022/03/12 11:20:21;;;;;;;;;;;;;;;4.34;38.31;101116.19;5013394;28;19909;-89
2022/03/12 11:22:49;;;;;;;;;;;;;;;4.67;36.53;101112.88;5011032;28;20008;-90
2022/03/12 11:25:19;;;;;;;;;;;;;;;4.81;35.36;101105.44;5012982;28;19917;-91
2022/03/12 11:27:49;;;;;;;;;;;;;;;5.20;35.07;101107.50;5028499;28;19936;-89
2022/03/12 11:30:15;;;;;;;;;;;;;;;5.60;34.89;101102.53;4997860;28;19924;-86
2022/03/12 11:32:44;;;;;;;;;;;;;;;4.25;34.21;101108.03;5031910;28;19921;-88
2022/03/12 11:35:15;;;;;;;;;;;;;;;3.88;35.86;101112.88;5031291;28;19944;-89
2022/03/12 11:37:41;;;;;;;;;;;;;;;3.55;37.58;101109.94;5014151;28;19962;-88
2022/03/12 11:40:10;;;;;;;;;;;;;;;3.52;36.06;101112.44;5028752;28;19956;-89
2022/03/12 11:42:36;;;;;;;;;;;;;;;3.12;37.52;101118.78;5030142;28;20362;-91
2022/03/12 11:45:04;;;;;;;;;;;;;;;3.62;36.22;101111.97;5031630;28;19924;-88
2022/03/12 11:47:33;;;;;;;;;;;;;;;3.65;39.04;101109.47;5025350;28;19952;-88
2022/03/12 11:50:03;;;;;;;;;;;;;;;3.79;40.23;101106.47;5019741;28;20019;-86
2022/03/12 11:52:30;;;;;;;;;;;;;;;3.69;40.31;101094.78;5031700;28;19920;-92
2022/03/12 11:54:56;;;;;;;;;;;;;;;3.86;42.08;101098.91;5012014;28;19963;-88
2022/03/12 11:57:30;;;;;;;;;;;;;;;4.06;41.02;101093.44;5009899;28;19968;-86
2022/03/12 11:59:56;;;;;;;;;;;;;;;3.86;41.55;101104.13;5009913;28;20016;-87
2022/03/12 12:02:26;;;;;;;;;;;;;;;3.82;43.75;101099.63;5012879;28;19925;-89
2022/03/12 12:04:52;;;;;;;;;;;;;;;3.49;43.09;101104.50;5027063;28;19921;-89
2022/03/12 12:07:18;;;;;;;;;;;;;;;3.09;44.55;101098.72;4994795;28;19991;-90
2022/03/12 12:09:44;;;;;;;;;;;;;;;3.72;43.96;101105.31;5008230;28;20375;-88
2022/03/12 12:12:22;;;;;;;;;;;;;;;4.24;41.42;101098.41;5008343;28;19967;-89
2022/03/12 12:14:47;;;;;;;;;;;;;;;4.46;38.54;101100.91;5009761;28;19913;-87
2022/03/12 12:17:12;;;;;;;;;;;;;;;4.22;33.63;101103.56;4990264;28;20446;-88
2022/03/12 12:19:38;;;;;;;;;;;;;;;4.22;34.44;101102.69;5007967;28;20003;-87
2022/03/12 12:22:06;;;;;;;;;;;;;;;4.34;33.84;101105.72;5015567;28;19979;-87
2022/03/12 12:24:36;;;;;;;;;;;;;;;4.10;35.17;101095.34;5024412;28;20386;-86
2022/03/12 12:27:01;;;;;;;;;;;;;;;3.24;35.06;101114.03;5027942;28;19925;-85
2022/03/12 12:29:45;;;;;;;;;;;;;;;3.01;37.41;101106.25;5028200;28;19921;-87
2022/03/12 12:32:12;;;;;;;;;;;;;;;3.50;36.70;101098.47;5028468;28;20637;-89
2022/03/12 12:34:56;;;;;;;;;;;;;;;3.90;38.60;101100.75;5028253;28;19982;-87
2022/03/12 12:37:38;;;;;;;;;;;;;;;3.49;35.70;101099.28;5029751;28;19999;-87
2022/03/12 12:40:13;;;;;;;;;;;;;;;3.30;37.29;101102.94;5030204;28;19921;-88
2022/03/12 12:42:40;;;;;;;;;;;;;;;3.74;35.45;101096.72;5029601;28;19956;-87
2022/03/12 12:45:07;;;;;;;;;;;;;;;3.79;35.23;101093.41;5030254;28;19916;-87